createdAt,value
2023-01-09T00:01:31.921Z,17.45
2023-01-09T00:06:24.887Z,17.83
2023-01-09T00:11:18.060Z,16.65
2023-01-09T00:16:10.853Z,17.83
2023-01-09T00:21:05.757Z,17.17
2023-01-09T00:26:07.116Z,16.95
2023-01-09T00:31:01.780Z,15.75
2023-01-09T00:35:55.640Z,15.90
2023-01-09T00:40:49.591Z,14.85
2023-01-09T00:45:44.003Z,15.45
2023-01-09T00:50:38.597Z,14.38
2023-01-09T00:55:32.657Z,14.43
2023-01-09T01:00:26.676Z,13.52
2023-01-09T01:05:39.136Z,14.57
2023-01-09T01:10:32.902Z,13.43
2023-01-09T01:15:30.091Z,13.57
2023-01-09T01:20:23.404Z,12.63
2023-01-09T01:25:20.674Z,11.73
2023-01-09T01:30:16.315Z,11.60
2023-01-09T01:35:10.657Z,11.88
2023-01-09T01:40:06.069Z,11.43
2023-01-09T01:45:13.833Z,12.23
2023-01-09T01:50:27.371Z,11.88
2023-01-09T01:55:21.834Z,12.43
2023-01-09T02:00:17.770Z,10.38
2023-01-09T02:05:12.052Z,10.98
2023-01-09T02:10:06.442Z,11.13
2023-01-09T02:15:03.028Z,9.73
2023-01-09T02:20:54.699Z,10.32
2023-01-09T02:26:24.646Z,10.23
2023-01-09T02:31:45.781Z,10.23
2023-01-09T02:37:01.665Z,9.95
2023-01-09T02:42:04.516Z,9.25
2023-01-09T02:47:09.367Z,9.73
2023-01-09T02:52:40.803Z,9.13
2023-01-09T02:58:04.898Z,8.30
2023-01-09T03:03:06.503Z,8.70
2023-01-09T03:08:07.238Z,8.23
2023-01-09T03:13:06.802Z,8.13
2023-01-09T03:18:02.121Z,8.25
2023-01-09T03:23:03.289Z,7.97
2023-01-09T03:28:05.498Z,7.78
2023-01-09T03:32:59.631Z,8.27
2023-01-09T03:37:52.674Z,7.78
2023-01-09T03:42:46.732Z,7.43
2023-01-09T03:47:40.105Z,7.22
2023-01-09T03:52:33.546Z,7.38
2023-01-09T03:57:26.520Z,6.93
2023-01-09T04:02:20.755Z,7.40
2023-01-09T04:07:14.518Z,7.43
2023-01-09T04:12:08.720Z,7.32
2023-01-09T04:17:02.781Z,6.93
2023-01-09T04:21:56.282Z,6.72
2023-01-09T04:26:49.239Z,6.38
2023-01-09T04:31:42.845Z,6.10
2023-01-09T04:36:36.858Z,6.28
2023-01-09T04:41:48.619Z,6.15
2023-01-09T04:46:41.666Z,5.78
2023-01-09T04:51:35.259Z,5.85
2023-01-09T04:56:28.797Z,5.68
2023-01-09T05:01:22.720Z,6.13
2023-01-09T05:06:16.249Z,5.32
2023-01-09T05:11:10.689Z,5.32
2023-01-09T05:16:07.830Z,5.47
2023-01-09T05:21:01.344Z,5.32
2023-01-09T05:25:54.699Z,5.13
2023-01-09T05:30:48.685Z,4.40
2023-01-09T05:35:41.677Z,4.80
2023-01-09T05:40:40.463Z,4.68
2023-01-09T05:45:33.456Z,4.60
2023-01-09T05:50:27.354Z,4.65
2023-01-09T05:55:20.936Z,4.63
2023-01-09T06:00:16.580Z,4.72
2023-01-09T06:05:09.843Z,4.20
2023-01-09T06:10:04.476Z,4.00
2023-01-09T06:15:00.582Z,4.03
2023-01-09T06:19:53.698Z,4.65
2023-01-09T06:24:47.589Z,3.72
2023-01-09T06:29:45.204Z,4.43
2023-01-09T06:34:38.873Z,4.30
2023-01-09T06:39:32.775Z,4.30
2023-01-09T06:44:26.127Z,4.25
2023-01-09T06:49:23.861Z,3.55
2023-01-09T06:54:18.090Z,3.38
2023-01-09T06:59:12.189Z,3.30
2023-01-09T07:04:06.504Z,3.58
2023-01-09T07:08:59.857Z,3.42
2023-01-09T07:13:53.628Z,3.78
2023-01-09T07:18:47.511Z,3.65
2023-01-09T07:23:40.887Z,3.22
2023-01-09T07:28:34.499Z,3.20
2023-01-09T07:33:28.755Z,3.03
2023-01-09T07:38:22.755Z,3.10
2023-01-09T07:43:16.688Z,4.22
2023-01-09T07:48:11.276Z,3.03
2023-01-09T07:53:04.817Z,3.40
2023-01-09T07:57:58.695Z,3.20
2023-01-09T08:02:54.936Z,2.95
2023-01-09T08:07:48.809Z,2.78
2023-01-09T08:12:43.882Z,2.72
2023-01-09T08:17:37.721Z,2.47
2023-01-09T08:22:31.212Z,2.88
2023-01-09T08:27:25.118Z,2.50
2023-01-09T08:32:18.116Z,2.40
2023-01-09T08:37:11.162Z,2.13
2023-01-09T08:42:23.913Z,2.33
2023-01-09T08:47:21.483Z,1.95
2023-01-09T08:52:14.851Z,2.40
2023-01-09T08:57:08.238Z,2.90
2023-01-09T09:02:02.377Z,2.40
2023-01-09T09:06:56.684Z,2.60
2023-01-09T09:11:50.217Z,2.67
2023-01-09T09:16:43.513Z,3.05
2023-01-09T09:21:36.980Z,3.22
2023-01-09T09:26:30.685Z,4.30
2023-01-09T09:31:24.758Z,4.60
2023-01-09T09:36:18.905Z,4.35
2023-01-09T09:41:47.151Z,4.18
2023-01-09T09:47:09.182Z,4.38
2023-01-09T09:52:14.857Z,7.28
2023-01-09T09:57:15.291Z,4.97
2023-01-09T10:02:40.227Z,4.60
2023-01-09T10:07:42.178Z,4.93
2023-01-09T10:12:57.020Z,4.68
2023-01-09T10:17:50.118Z,4.75
2023-01-09T10:23:00.658Z,4.53
2023-01-09T10:28:05.199Z,4.20
2023-01-09T10:33:19.058Z,3.78
2023-01-09T10:38:18.836Z,3.45
2023-01-09T10:43:30.071Z,3.63
2023-01-09T10:48:37.941Z,4.00
2023-01-09T10:53:41.824Z,3.78
2023-01-09T10:58:35.648Z,3.78
2023-01-09T11:03:29.588Z,3.78
2023-01-09T11:08:44.925Z,4.15
2023-01-09T11:13:46.856Z,4.25
2023-01-09T11:18:55.210Z,4.32
2023-01-09T11:23:51.000Z,4.15
2023-01-09T11:28:46.719Z,3.58
2023-01-09T11:33:51.122Z,3.75
2023-01-09T11:38:58.733Z,4.10
2023-01-09T11:43:54.968Z,3.38
2023-01-09T11:48:57.438Z,3.08
2023-01-09T11:54:30.999Z,3.35
2023-01-09T11:59:48.463Z,3.63
2023-01-09T12:04:55.810Z,3.50
2023-01-09T12:09:51.388Z,3.42
2023-01-09T12:15:10.203Z,2.97
2023-01-09T12:20:53.817Z,3.72
2023-01-09T12:26:02.088Z,3.95
2023-01-09T12:31:11.139Z,3.17
2023-01-09T12:36:41.100Z,4.05
2023-01-09T12:41:45.662Z,3.50
2023-01-09T12:47:01.058Z,3.90
2023-01-09T12:52:18.300Z,3.88
2023-01-09T12:57:51.886Z,3.90
2023-01-09T13:02:44.319Z,4.03
2023-01-09T13:07:50.794Z,6.25
2023-01-09T13:13:09.687Z,7.88
2023-01-09T13:18:13.456Z,8.25
2023-01-09T13:23:28.794Z,8.25
2023-01-09T13:29:04.016Z,8.52
2023-01-09T13:34:02.896Z,8.02
2023-01-09T13:39:01.139Z,7.45
2023-01-09T13:44:24.934Z,7.50
2023-01-09T13:49:44.322Z,6.28
2023-01-09T13:54:51.790Z,7.07
2023-01-09T13:59:46.354Z,6.80
2023-01-09T14:04:44.586Z,6.68
2023-01-09T14:09:38.643Z,6.00
2023-01-09T14:14:35.074Z,6.35
2023-01-09T14:19:39.675Z,5.95
2023-01-09T14:25:05.964Z,5.40
2023-01-09T14:30:26.915Z,5.03
2023-01-09T14:35:28.486Z,5.30
2023-01-09T14:40:24.281Z,4.53
2023-01-09T14:45:38.316Z,4.82
2023-01-09T14:50:55.989Z,4.05
2023-01-09T14:56:00.604Z,3.50
2023-01-09T15:01:08.744Z,3.33
2023-01-09T15:06:02.927Z,3.33
2023-01-09T15:10:58.310Z,3.55
2023-01-09T15:15:51.137Z,3.47
2023-01-09T15:20:44.668Z,3.30
2023-01-09T15:25:40.671Z,3.78
2023-01-09T15:30:35.915Z,3.53
2023-01-09T15:35:29.557Z,3.63
2023-01-09T15:41:02.489Z,3.92
2023-01-09T15:45:57.329Z,4.03
2023-01-09T15:51:18.963Z,4.32
2023-01-09T15:56:20.764Z,4.57
2023-01-09T16:01:42.042Z,5.65
2023-01-09T16:06:37.968Z,4.47
2023-01-09T16:11:38.288Z,5.22
2023-01-09T16:16:35.771Z,5.00
2023-01-09T16:21:38.197Z,5.32
2023-01-09T16:26:33.157Z,5.30
2023-01-09T16:31:30.572Z,5.30
2023-01-09T16:36:23.776Z,5.25
2023-01-09T16:41:40.596Z,5.15
2023-01-09T16:46:36.065Z,4.97
2023-01-09T16:51:30.038Z,4.90
2023-01-09T16:56:49.203Z,4.38
2023-01-09T17:01:44.285Z,4.72
2023-01-09T17:06:39.986Z,5.00
2023-01-09T17:11:33.345Z,4.90
2023-01-09T17:16:26.650Z,4.65
2023-01-09T17:21:22.638Z,4.65
2023-01-09T17:26:39.985Z,4.20
2023-01-09T17:31:35.425Z,4.50
2023-01-09T17:36:32.678Z,4.05
2023-01-09T17:41:29.257Z,3.70
2023-01-09T17:46:48.288Z,4.95
2023-01-09T17:51:42.161Z,4.50
2023-01-09T17:56:38.731Z,4.47
2023-01-09T18:01:32.595Z,3.97
2023-01-09T18:06:26.959Z,4.40
2023-01-09T18:11:22.175Z,4.90
2023-01-09T18:16:18.687Z,6.60
2023-01-09T18:21:15.552Z,12.00
2023-01-09T18:26:10.341Z,23.92
2023-01-09T18:31:03.797Z,23.42
2023-01-09T18:35:57.259Z,21.70
2023-01-09T18:40:51.114Z,19.63
2023-01-09T18:45:45.200Z,18.08
2023-01-09T18:50:38.528Z,17.63
2023-01-09T18:55:32.204Z,16.30
2023-01-09T19:00:25.549Z,16.27
2023-01-09T19:05:19.424Z,14.30
2023-01-09T19:10:13.810Z,13.32
2023-01-09T19:15:11.746Z,11.82
2023-01-09T19:20:05.548Z,12.05
2023-01-09T19:24:59.041Z,11.30
2023-01-09T19:29:53.193Z,10.60
2023-01-09T19:34:47.311Z,11.02
2023-01-09T19:39:41.191Z,10.55
2023-01-09T19:44:34.887Z,9.73
2023-01-09T19:49:28.622Z,9.20
2023-01-09T19:54:21.210Z,9.70
2023-01-09T19:59:16.163Z,8.68
2023-01-09T20:04:13.861Z,8.82
2023-01-09T20:09:08.265Z,8.07
2023-01-09T20:14:01.130Z,7.65
2023-01-09T20:18:57.699Z,7.43
2023-01-09T20:23:54.057Z,7.63
2023-01-09T20:28:48.031Z,6.75
2023-01-09T20:33:42.152Z,8.68
2023-01-09T20:38:35.787Z,9.15
2023-01-09T20:43:29.788Z,11.23
2023-01-09T20:48:23.355Z,8.45
2023-01-09T20:53:17.263Z,7.75
2023-01-09T20:58:11.647Z,7.10
2023-01-09T21:03:06.174Z,7.03
2023-01-09T21:08:00.329Z,6.65
2023-01-09T21:12:54.697Z,6.40
2023-01-09T21:17:48.369Z,6.32
2023-01-09T21:22:41.988Z,5.68
2023-01-09T21:27:40.700Z,6.00
2023-01-09T21:32:33.712Z,6.03
2023-01-09T21:37:29.828Z,5.38
2023-01-09T21:42:41.358Z,5.72
2023-01-09T21:47:39.344Z,5.65
2023-01-09T21:52:35.684Z,5.53
2023-01-09T21:57:28.997Z,5.55
2023-01-09T22:02:22.869Z,5.38
2023-01-09T22:07:17.417Z,4.70
2023-01-09T22:12:13.450Z,4.63
2023-01-09T22:17:06.819Z,5.10
2023-01-09T22:22:00.503Z,4.47
2023-01-09T22:26:54.796Z,4.68
2023-01-09T22:31:49.138Z,5.00
2023-01-09T22:36:42.877Z,4.35
2023-01-09T22:41:36.753Z,4.47
2023-01-09T22:46:30.866Z,4.38
2023-01-09T22:51:24.908Z,4.07
2023-01-09T22:56:22.572Z,3.63
2023-01-09T23:01:15.512Z,4.18
2023-01-09T23:06:28.894Z,3.58
2023-01-09T23:11:44.563Z,3.78
2023-01-09T23:16:37.686Z,3.72
2023-01-09T23:21:31.751Z,3.72
2023-01-09T23:26:24.869Z,3.25
2023-01-09T23:31:18.467Z,3.63
2023-01-09T23:36:12.753Z,3.22
2023-01-09T23:41:09.198Z,3.10
2023-01-09T23:46:03.034Z,3.63
2023-01-09T23:50:56.820Z,3.55
2023-01-09T23:55:51.508Z,3.58
